sensor_id;sensor_type;location;lat;lon;timestamp;pressure;altitude;pressure_sealevel;temperature;humidity
76609;BME280;65928;53.936;27.540;2023-02-07T00:01:10;100733.63;;;0.61;71.41
76609;BME280;65928;53.936;27.540;2023-02-07T00:03:37;100834.03;;;1.03;71.50
76609;BME280;65928;53.936;27.540;2023-02-07T00:06:10;100821.28;;;0.67;72.49
76609;BME280;65928;53.936;27.540;2023-02-07T00:08:37;100819.28;;;1.03;72.16
76609;BME280;65928;53.936;27.540;2023-02-07T00:11:05;100285.81;;;-2.14;72.27
76609;BME280;65928;53.936;27.540;2023-02-07T00:13:30;100594.19;;;-0.40;72.68
76609;BME280;65928;53.936;27.540;2023-02-07T00:15:56;100773.53;;;0.62;71.97
76609;BME280;65928;53.936;27.540;2023-02-07T00:18:22;100822.09;;;0.64;73.31
76609;BME280;65928;53.936;27.540;2023-02-07T00:20:57;100836.53;;;0.47;73.96
76609;BME280;65928;53.936;27.540;2023-02-07T00:23:23;100311.00;;;-2.06;72.65
76609;BME280;65928;53.936;27.540;2023-02-07T00:25:48;100309.06;;;-2.57;73.97
76609;BME280;65928;53.936;27.540;2023-02-07T00:28:14;100304.66;;;-2.61;73.93
76609;BME280;65928;53.936;27.540;2023-02-07T00:30:39;100293.72;;;-2.48;74.56
76609;BME280;65928;53.936;27.540;2023-02-07T00:33:05;100803.94;;;0.20;74.94
76609;BME280;65928;53.936;27.540;2023-02-07T00:35:30;100804.03;;;0.23;75.04
76609;BME280;65928;53.936;27.540;2023-02-07T00:37:55;100817.84;;;0.20;75.27
76609;BME280;65928;53.936;27.540;2023-02-07T00:40:21;100877.56;;;0.17;75.55
76609;BME280;65928;53.936;27.540;2023-02-07T00:42:47;100751.94;;;0.17;74.59
76609;BME280;65928;53.936;27.540;2023-02-07T00:45:13;100814.59;;;0.33;75.13
76609;BME280;65928;53.936;27.540;2023-02-07T00:47:38;100707.50;;;-0.43;75.74
76609;BME280;65928;53.936;27.540;2023-02-07T00:50:04;100889.94;;;0.30;75.28
76609;BME280;65928;53.936;27.540;2023-02-07T00:52:30;100371.66;;;-2.35;75.02
76609;BME280;65928;53.936;27.540;2023-02-07T00:54:55;100306.38;;;-2.62;75.15
76609;BME280;65928;53.936;27.540;2023-02-07T00:57:21;100228.16;;;-3.29;74.57
76609;BME280;65928;53.936;27.540;2023-02-07T00:59:46;100790.41;;;-0.09;75.96
76609;BME280;65928;53.936;27.540;2023-02-07T01:02:12;100829.50;;;-0.03;75.61
76609;BME280;65928;53.936;27.540;2023-02-07T01:04:37;100819.34;;;0.08;75.86
76609;BME280;65928;53.936;27.540;2023-02-07T01:07:03;100275.94;;;-3.11;75.93
76609;BME280;65928;53.936;27.540;2023-02-07T01:09:28;100713.16;;;-0.62;76.60
76609;BME280;65928;53.936;27.540;2023-02-07T01:11:54;100821.97;;;0.11;75.75
76609;BME280;65928;53.936;27.540;2023-02-07T01:14:19;100302.00;;;-3.03;75.81
76609;BME280;65928;53.936;27.540;2023-02-07T01:16:45;100731.38;;;-0.18;74.85
76609;BME280;65928;53.936;27.540;2023-02-07T01:19:10;100294.75;;;-2.81;75.01
76609;BME280;65928;53.936;27.540;2023-02-07T01:21:36;100746.50;;;-0.39;75.68
76609;BME280;65928;53.936;27.540;2023-02-07T01:24:02;100448.38;;;-2.00;75.11
76609;BME280;65928;53.936;27.540;2023-02-07T01:26:28;100820.28;;;0.11;74.99
76609;BME280;65928;53.936;27.540;2023-02-07T01:28:54;100478.09;;;-1.83;75.20
76609;BME280;65928;53.936;27.540;2023-02-07T01:31:20;100772.72;;;-0.28;75.00
76609;BME280;65928;53.936;27.540;2023-02-07T01:33:47;100412.25;;;-2.32;74.11
76609;BME280;65928;53.936;27.540;2023-02-07T01:36:14;100841.88;;;0.10;74.79
76609;BME280;65928;53.936;27.540;2023-02-07T01:38:41;100902.25;;;-0.03;75.43
76609;BME280;65928;53.936;27.540;2023-02-07T01:41:07;100825.22;;;-0.01;74.36
76609;BME280;65928;53.936;27.540;2023-02-07T01:43:34;100833.78;;;0.38;74.10
76609;BME280;65928;53.936;27.540;2023-02-07T01:45:59;100716.88;;;-0.05;73.05
76609;BME280;65928;53.936;27.540;2023-02-07T01:48:31;100809.84;;;0.56;72.44
76609;BME280;65928;53.936;27.540;2023-02-07T01:51:00;100682.16;;;-0.55;73.54
76609;BME280;65928;53.936;27.540;2023-02-07T01:53:29;100497.94;;;-1.43;73.03
76609;BME280;65928;53.936;27.540;2023-02-07T01:55:58;100681.84;;;-0.70;73.63
76609;BME280;65928;53.936;27.540;2023-02-07T01:58:25;100826.63;;;0.25;73.41
76609;BME280;65928;53.936;27.540;2023-02-07T02:00:52;100792.38;;;0.04;74.12
76609;BME280;65928;53.936;27.540;2023-02-07T02:03:17;100301.06;;;-2.68;72.56
76609;BME280;65928;53.936;27.540;2023-02-07T02:05:43;100318.94;;;-2.40;72.37
76609;BME280;65928;53.936;27.540;2023-02-07T02:08:10;100784.50;;;-0.02;73.62
76609;BME280;65928;53.936;27.540;2023-02-07T02:11:35;100795.19;;;0.13;73.40
76609;BME280;65928;53.936;27.540;2023-02-07T02:14:01;100892.03;;;0.05;74.05
76609;BME280;65928;53.936;27.540;2023-02-07T02:17:16;100875.81;;;0.16;73.84
76609;BME280;65928;53.936;27.540;2023-02-07T02:30:17;100814.38;;;-0.24;75.32
76609;BME280;65928;53.936;27.540;2023-02-07T02:33:32;100816.47;;;-0.06;75.14
76609;BME280;65928;53.936;27.540;2023-02-07T02:35:46;100572.19;;;-1.46;74.92
76609;BME280;65928;53.936;27.540;2023-02-07T02:38:50;100819.25;;;0.03;74.57
76609;BME280;65928;53.936;27.540;2023-02-07T02:41:23;100323.22;;;-2.79;74.05
76609;BME280;65928;53.936;27.540;2023-02-07T02:44:00;100820.50;;;-0.20;74.84
76609;BME280;65928;53.936;27.540;2023-02-07T02:46:30;100315.41;;;-3.18;74.06
76609;BME280;65928;53.936;27.540;2023-02-07T02:48:59;100312.69;;;-2.88;74.35
76609;BME280;65928;53.936;27.540;2023-02-07T02:51:29;100698.78;;;-0.87;74.11
76609;BME280;65928;53.936;27.540;2023-02-07T02:53:57;100428.81;;;-2.26;74.17
76609;BME280;65928;53.936;27.540;2023-02-07T02:56:33;100820.63;;;-0.14;73.94
76609;BME280;65928;53.936;27.540;2023-02-07T02:59:13;100827.63;;;-0.10;73.77
76609;BME280;65928;53.936;27.540;2023-02-07T03:12:04;100334.78;;;-3.36;74.59
76609;BME280;65928;53.936;27.540;2023-02-07T03:14:56;100847.84;;;-0.37;74.69
76609;BME280;65928;53.936;27.540;2023-02-07T03:20:20;100855.84;;;-0.27;75.22
76609;BME280;65928;53.936;27.540;2023-02-07T03:22:48;100317.28;;;-3.48;74.88
76609;BME280;65928;53.936;27.540;2023-02-07T03:25:16;100452.31;;;-2.52;74.68
76609;BME280;65928;53.936;27.540;2023-02-07T03:27:43;100322.88;;;-3.64;75.07
76609;BME280;65928;53.936;27.540;2023-02-07T03:30:12;100889.59;;;-0.27;74.57
76609;BME280;65928;53.936;27.540;2023-02-07T03:32:43;100854.31;;;-0.17;74.35
76609;BME280;65928;53.936;27.540;2023-02-07T03:35:21;100341.81;;;-3.31;74.24
76609;BME280;65928;53.936;27.540;2023-02-07T03:37:54;100428.44;;;-2.78;74.66
76609;BME280;65928;53.936;27.540;2023-02-07T03:40:22;100861.94;;;-0.25;74.56
76609;BME280;65928;53.936;27.540;2023-02-07T03:43:04;100650.91;;;-1.41;73.91
76609;BME280;65928;53.936;27.540;2023-02-07T03:45:31;100850.63;;;-0.28;74.16
76609;BME280;65928;53.936;27.540;2023-02-07T03:47:57;100844.84;;;-0.54;74.70
76609;BME280;65928;53.936;27.540;2023-02-07T03:50:22;100818.00;;;-0.54;74.50
76609;BME280;65928;53.936;27.540;2023-02-07T03:52:48;100445.25;;;-2.61;74.45
76609;BME280;65928;53.936;27.540;2023-02-07T03:55:14;100357.94;;;-3.39;75.58
76609;BME280;65928;53.936;27.540;2023-02-07T03:57:39;100778.56;;;-1.16;76.32
76609;BME280;65928;53.936;27.540;2023-02-07T04:00:05;100419.03;;;-3.09;76.45
76609;BME280;65928;53.936;27.540;2023-02-07T04:02:31;100370.16;;;-3.65;76.19
76609;BME280;65928;53.936;27.540;2023-02-07T04:04:56;100815.47;;;-0.92;76.36
76609;BME280;65928;53.936;27.540;2023-02-07T04:07:22;100377.78;;;-3.38;75.49
76609;BME280;65928;53.936;27.540;2023-02-07T04:09:47;100901.53;;;-0.35;76.36
76609;BME280;65928;53.936;27.540;2023-02-07T04:12:13;100966.38;;;-0.39;76.38
76609;BME280;65928;53.936;27.540;2023-02-07T04:14:38;100886.72;;;-0.40;76.38
76609;BME280;65928;53.936;27.540;2023-02-07T04:17:04;100340.06;;;-3.65;76.18
76609;BME280;65928;53.936;27.540;2023-02-07T04:19:29;100410.69;;;-3.31;77.04
76609;BME280;65928;53.936;27.540;2023-02-07T04:21:54;100942.81;;;-0.82;77.46
76609;BME280;65928;53.936;27.540;2023-02-07T04:24:20;100553.56;;;-2.73;78.80
76609;BME280;65928;53.936;27.540;2023-02-07T04:26:45;100411.75;;;-3.56;78.92
76609;BME280;65928;53.936;27.540;2023-02-07T04:29:11;100938.66;;;-0.76;80.33
76609;BME280;65928;53.936;27.540;2023-02-07T04:31:36;100916.31;;;-0.69;79.12
76609;BME280;65928;53.936;27.540;2023-02-07T04:34:03;100904.50;;;-0.57;79.77
76609;BME280;65928;53.936;27.540;2023-02-07T04:36:30;100659.28;;;-1.89;78.25
76609;BME280;65928;53.936;27.540;2023-02-07T04:38:55;100921.59;;;-0.99;78.63
76609;BME280;65928;53.936;27.540;2023-02-07T04:41:21;100897.75;;;-0.86;79.18
76609;BME280;65928;53.936;27.540;2023-02-07T04:43:46;101027.34;;;-0.58;77.40
76609;BME280;65928;53.936;27.540;2023-02-07T04:46:12;100371.38;;;-3.85;76.59
76609;BME280;65928;53.936;27.540;2023-02-07T04:48:37;100702.44;;;-1.89;75.92
76609;BME280;65928;53.936;27.540;2023-02-07T04:51:04;100934.72;;;-0.60;75.84
76609;BME280;65928;53.936;27.540;2023-02-07T04:53:30;100880.38;;;-0.88;73.43
76609;BME280;65928;53.936;27.540;2023-02-07T04:55:56;100410.53;;;-3.69;71.78
76609;BME280;65928;53.936;27.540;2023-02-07T04:58:22;100954.50;;;-0.64;72.47
76609;BME280;65928;53.936;27.540;2023-02-07T05:00:47;100888.75;;;-1.00;72.54
76609;BME280;65928;53.936;27.540;2023-02-07T05:03:13;101036.72;;;-0.64;72.70
76609;BME280;65928;53.936;27.540;2023-02-07T05:05:43;100510.00;;;-3.22;71.66
76609;BME280;65928;53.936;27.540;2023-02-07T05:08:09;100958.22;;;-0.88;71.99
76609;BME280;65928;53.936;27.540;2023-02-07T05:10:36;100481.34;;;-3.31;71.00
76609;BME280;65928;53.936;27.540;2023-02-07T05:13:01;100961.00;;;-0.81;72.21
76609;BME280;65928;53.936;27.540;2023-02-07T05:15:27;100960.22;;;-0.78;71.90
76609;BME280;65928;53.936;27.540;2023-02-07T05:17:52;100939.25;;;-0.86;72.69
76609;BME280;65928;53.936;27.540;2023-02-07T05:20:18;100942.03;;;-0.78;72.55
76609;BME280;65928;53.936;27.540;2023-02-07T05:22:44;100931.84;;;-0.71;71.90
76609;BME280;65928;53.936;27.540;2023-02-07T05:25:09;100433.06;;;-3.63;71.82
76609;BME280;65928;53.936;27.540;2023-02-07T05:27:35;100969.31;;;-0.60;71.85
76609;BME280;65928;53.936;27.540;2023-02-07T05:30:01;100871.09;;;-1.15;72.36
76609;BME280;65928;53.936;27.540;2023-02-07T05:32:27;100448.69;;;-3.60;71.35
76609;BME280;65928;53.936;27.540;2023-02-07T05:35:11;100870.69;;;-1.30;71.68
76609;BME280;65928;53.936;27.540;2023-02-07T05:37:36;100896.06;;;-1.18;71.56
76609;BME280;65928;53.936;27.540;2023-02-07T05:40:02;100858.97;;;-1.48;72.09
76609;BME280;65928;53.936;27.540;2023-02-07T05:42:28;100957.16;;;-0.95;71.83
76609;BME280;65928;53.936;27.540;2023-02-07T05:44:53;100544.09;;;-3.35;72.99
76609;BME280;65928;53.936;27.540;2023-02-07T05:47:19;100979.13;;;-0.82;73.45
76609;BME280;65928;53.936;27.540;2023-02-07T05:49:45;100484.06;;;-3.86;72.70
76609;BME280;65928;53.936;27.540;2023-02-07T05:52:10;101014.78;;;-0.75;73.36
76609;BME280;65928;53.936;27.540;2023-02-07T05:54:36;100510.00;;;-3.53;72.91
76609;BME280;65928;53.936;27.540;2023-02-07T05:57:02;100506.97;;;-3.68;73.77
76609;BME280;65928;53.936;27.540;2023-02-07T05:59:27;100461.44;;;-3.94;73.48
76609;BME280;65928;53.936;27.540;2023-02-07T06:01:52;101033.81;;;-0.75;74.18
76609;BME280;65928;53.936;27.540;2023-02-07T06:04:18;101033.84;;;-0.41;73.84
76609;BME280;65928;53.936;27.540;2023-02-07T06:06:43;101037.88;;;-0.52;74.44
76609;BME280;65928;53.936;27.540;2023-02-07T06:09:09;100464.56;;;-3.76;74.56
76609;BME280;65928;53.936;27.540;2023-02-07T06:11:34;100585.88;;;-3.20;74.84
76609;BME280;65928;53.936;27.540;2023-02-07T06:14:00;100829.94;;;-1.68;74.43
76609;BME280;65928;53.936;27.540;2023-02-07T06:16:25;101032.91;;;-0.43;74.64
76609;BME280;65928;53.936;27.540;2023-02-07T06:18:51;101030.50;;;-0.69;74.79
76609;BME280;65928;53.936;27.540;2023-02-07T06:21:16;101073.66;;;-0.40;73.70
76609;BME280;65928;53.936;27.540;2023-02-07T06:23:42;100565.75;;;-3.31;74.23
76609;BME280;65928;53.936;27.540;2023-02-07T06:26:07;101061.34;;;-0.49;74.02
76609;BME280;65928;53.936;27.540;2023-02-07T06:28:33;100536.84;;;-3.48;73.98
76609;BME280;65928;53.936;27.540;2023-02-07T06:30:58;100828.28;;;-1.97;74.61
76609;BME280;65928;53.936;27.540;2023-02-07T06:33:24;101074.47;;;-0.43;73.71
76609;BME280;65928;53.936;27.540;2023-02-07T06:35:50;100575.16;;;-3.33;74.43
76609;BME280;65928;53.936;27.540;2023-02-07T06:38:17;100529.69;;;-3.27;73.74
76609;BME280;65928;53.936;27.540;2023-02-07T06:40:42;101027.53;;;-0.50;74.43
76609;BME280;65928;53.936;27.540;2023-02-07T06:43:09;100554.59;;;-3.30;74.84
76609;BME280;65928;53.936;27.540;2023-02-07T06:45:35;101025.88;;;-0.81;75.22
76609;BME280;65928;53.936;27.540;2023-02-07T06:48:01;101026.91;;;-0.42;74.12
76609;BME280;65928;53.936;27.540;2023-02-07T06:50:26;101089.81;;;-0.52;73.43
76609;BME280;65928;53.936;27.540;2023-02-07T06:52:52;101080.56;;;-0.41;73.77
76609;BME280;65928;53.936;27.540;2023-02-07T06:55:17;101181.72;;;-0.47;73.74
76609;BME280;65928;53.936;27.540;2023-02-07T06:57:43;101079.41;;;-0.53;73.80
76609;BME280;65928;53.936;27.540;2023-02-07T07:00:09;101087.19;;;-0.19;72.44
76609;BME280;65928;53.936;27.540;2023-02-07T07:02:35;101087.78;;;0.04;71.27
76609;BME280;65928;53.936;27.540;2023-02-07T07:05:00;100765.41;;;-1.92;71.33
76609;BME280;65928;53.936;27.540;2023-02-07T07:07:26;101079.97;;;0.04;71.16
76609;BME280;65928;53.936;27.540;2023-02-07T07:09:51;101085.31;;;0.10;70.79
76609;BME280;65928;53.936;27.540;2023-02-07T07:12:17;101078.66;;;0.22;71.10
76609;BME280;65928;53.936;27.540;2023-02-07T07:14:42;101084.47;;;0.11;70.80
76609;BME280;65928;53.936;27.540;2023-02-07T07:17:08;100558.38;;;-2.54;70.18
76609;BME280;65928;53.936;27.540;2023-02-07T07:19:33;100560.66;;;-2.33;69.72
76609;BME280;65928;53.936;27.540;2023-02-07T07:21:59;100439.66;;;-3.12;68.45
76609;BME280;65928;53.936;27.540;2023-02-07T07:24:24;100559.06;;;-2.61;69.65
76609;BME280;65928;53.936;27.540;2023-02-07T07:26:51;101070.91;;;0.62;69.31
76609;BME280;65928;53.936;27.540;2023-02-07T07:29:17;101061.88;;;0.45;69.46
76609;BME280;65928;53.936;27.540;2023-02-07T07:31:43;101074.38;;;0.61;69.03
76609;BME280;65928;53.936;27.540;2023-02-07T07:34:09;100952.56;;;0.00;67.98
76609;BME280;65928;53.936;27.540;2023-02-07T07:36:34;100689.56;;;-1.86;68.33
76609;BME280;65928;53.936;27.540;2023-02-07T07:39:00;100585.19;;;-2.50;68.48
76609;BME280;65928;53.936;27.540;2023-02-07T07:41:25;100819.56;;;-1.35;69.53
76609;BME280;65928;53.936;27.540;2023-02-07T07:43:51;101010.38;;;-0.45;68.69
76609;BME280;65928;53.936;27.540;2023-02-07T07:46:16;100567.25;;;-3.08;68.85
76609;BME280;65928;53.936;27.540;2023-02-07T07:48:41;100699.53;;;-2.34;69.45
76609;BME280;65928;53.936;27.540;2023-02-07T07:51:07;100734.38;;;-2.21;69.51
76609;BME280;65928;53.936;27.540;2023-02-07T07:53:32;100639.13;;;-2.34;68.68
76609;BME280;65928;53.936;27.540;2023-02-07T07:55:58;100701.72;;;-2.16;69.19
76609;BME280;65928;53.936;27.540;2023-02-07T07:58:25;100626.91;;;-2.71;68.95
76609;BME280;65928;53.936;27.540;2023-02-07T08:00:51;100572.91;;;-2.92;68.36
76609;BME280;65928;53.936;27.540;2023-02-07T08:03:18;101155.16;;;0.32;69.64
76609;BME280;65928;53.936;27.540;2023-02-07T08:05:44;100627.34;;;-2.86;69.55
76609;BME280;65928;53.936;27.540;2023-02-07T08:08:10;100794.41;;;-1.72;69.17
76609;BME280;65928;53.936;27.540;2023-02-07T08:10:36;101230.59;;;0.00;68.95
76609;BME280;65928;53.936;27.540;2023-02-07T08:13:02;101005.16;;;-0.79;70.50
76609;BME280;65928;53.936;27.540;2023-02-07T08:15:28;101144.53;;;0.23;69.15
76609;BME280;65928;53.936;27.540;2023-02-07T08:17:53;101165.13;;;0.49;68.58
76609;BME280;65928;53.936;27.540;2023-02-07T08:20:19;101201.06;;;0.31;68.70
76609;BME280;65928;53.936;27.540;2023-02-07T08:22:44;100646.09;;;-2.32;67.65
76609;BME280;65928;53.936;27.540;2023-02-07T08:25:10;101144.84;;;0.35;68.52
76609;BME280;65928;53.936;27.540;2023-02-07T08:27:35;101104.56;;;0.55;67.37
76609;BME280;65928;53.936;27.540;2023-02-07T08:30:02;100608.75;;;-2.41;66.92
76609;BME280;65928;53.936;27.540;2023-02-07T08:32:28;100668.97;;;-2.16;67.06
76609;BME280;65928;53.936;27.540;2023-02-07T08:34:54;100732.34;;;-2.00;66.77
76609;BME280;65928;53.936;27.540;2023-02-07T08:37:20;101057.38;;;0.01;66.79
76609;BME280;65928;53.936;27.540;2023-02-07T08:39:46;101160.56;;;0.78;66.26
76609;BME280;65928;53.936;27.540;2023-02-07T08:42:20;101232.75;;;0.85;66.28
76609;BME280;65928;53.936;27.540;2023-02-07T08:44:47;101178.44;;;0.63;66.72
76609;BME280;65928;53.936;27.540;2023-02-07T08:47:14;101145.22;;;0.51;66.44
76609;BME280;65928;53.936;27.540;2023-02-07T08:49:39;100670.38;;;-2.27;65.86
76609;BME280;65928;53.936;27.540;2023-02-07T08:52:05;100618.22;;;-2.42;65.69
76609;BME280;65928;53.936;27.540;2023-02-07T08:54:30;100665.84;;;-2.35;65.72
76609;BME280;65928;53.936;27.540;2023-02-07T08:56:56;101179.44;;;0.68;66.51
76609;BME280;65928;53.936;27.540;2023-02-07T08:59:21;100740.41;;;-1.90;65.62
76609;BME280;65928;53.936;27.540;2023-02-07T09:01:47;101196.91;;;0.73;65.49
76609;BME280;65928;53.936;27.540;2023-02-07T09:04:12;101169.84;;;0.65;65.69
76609;BME280;65928;53.936;27.540;2023-02-07T09:06:38;100711.28;;;-1.81;65.66
76609;BME280;65928;53.936;27.540;2023-02-07T09:09:04;100701.28;;;-1.66;64.77
76609;BME280;65928;53.936;27.540;2023-02-07T09:11:30;101130.69;;;0.59;65.16
76609;BME280;65928;53.936;27.540;2023-02-07T09:13:55;101162.81;;;1.42;64.24
76609;BME280;65928;53.936;27.540;2023-02-07T09:16:21;101177.13;;;1.20;63.47
76609;BME280;65928;53.936;27.540;2023-02-07T09:18:47;101153.91;;;1.31;63.79
76609;BME280;65928;53.936;27.540;2023-02-07T09:21:13;101082.50;;;0.76;63.58
76609;BME280;65928;53.936;27.540;2023-02-07T09:23:39;100668.50;;;-1.65;63.48
76609;BME280;65928;53.936;27.540;2023-02-07T09:26:05;100768.34;;;-1.10;63.78
76609;BME280;65928;53.936;27.540;2023-02-07T09:28:31;100989.81;;;0.40;62.74
76609;BME280;65928;53.936;27.540;2023-02-07T09:30:57;101080.84;;;0.41;63.53
76609;BME280;65928;53.936;27.540;2023-02-07T09:33:23;100833.13;;;-0.37;62.87
76609;BME280;65928;53.936;27.540;2023-02-07T09:35:49;100653.09;;;-1.59;63.43
76609;BME280;65928;53.936;27.540;2023-02-07T09:38:20;101169.66;;;1.37;62.82
76609;BME280;65928;53.936;27.540;2023-02-07T09:40:47;100740.00;;;-1.01;62.86
76609;BME280;65928;53.936;27.540;2023-02-07T09:43:34;101168.31;;;1.57;61.80
76609;BME280;65928;53.936;27.540;2023-02-07T09:46:18;101254.25;;;1.15;63.09
76609;BME280;65928;53.936;27.540;2023-02-07T09:48:52;101185.41;;;1.03;63.64
76609;BME280;65928;53.936;27.540;2023-02-07T09:51:19;101188.63;;;0.91;64.08
76609;BME280;65928;53.936;27.540;2023-02-07T09:53:57;101111.84;;;0.69;63.51
76609;BME280;65928;53.936;27.540;2023-02-07T09:56:26;100778.91;;;-1.01;63.07
76609;BME280;65928;53.936;27.540;2023-02-07T09:59:03;101262.66;;;1.44;62.23
76609;BME280;65928;53.936;27.540;2023-02-07T10:01:52;100667.03;;;-1.54;62.38
76609;BME280;65928;53.936;27.540;2023-02-07T10:06:51;100976.97;;;0.49;62.08
76609;BME280;65928;53.936;27.540;2023-02-07T10:09:22;101163.28;;;1.66;61.02
76609;BME280;65928;53.936;27.540;2023-02-07T10:12:00;101203.75;;;1.94;61.33
76609;BME280;65928;53.936;27.540;2023-02-07T10:22:49;101288.22;;;1.60;62.51
76609;BME280;65928;53.936;27.540;2023-02-07T10:25:47;101213.56;;;1.62;62.00
76609;BME280;65928;53.936;27.540;2023-02-07T10:30:53;101163.00;;;1.52;61.02
76609;BME280;65928;53.936;27.540;2023-02-07T10:33:32;100928.28;;;0.40;60.94
76609;BME280;65928;53.936;27.540;2023-02-07T10:36:02;100724.25;;;-1.08;61.22
76609;BME280;65928;53.936;27.540;2023-02-07T10:41:40;101242.38;;;1.69;62.65
76609;BME280;65928;53.936;27.540;2023-02-07T10:44:12;101220.59;;;1.24;63.17
76609;BME280;65928;53.936;27.540;2023-02-07T10:46:40;101298.63;;;1.21;63.97
76609;BME280;65928;53.936;27.540;2023-02-07T10:49:20;101236.88;;;1.14;64.69
76609;BME280;65928;53.936;27.540;2023-02-07T10:51:46;100754.84;;;-1.65;64.07
76609;BME280;65928;53.936;27.540;2023-02-07T10:54:16;100826.09;;;-1.17;64.38
76609;BME280;65928;53.936;27.540;2023-02-07T10:56:51;100735.22;;;-1.90;65.44
76609;BME280;65928;53.936;27.540;2023-02-07T10:59:41;101266.59;;;1.24;66.44
76609;BME280;65928;53.936;27.540;2023-02-07T11:05:02;100758.84;;;-1.79;66.75
76609;BME280;65928;53.936;27.540;2023-02-07T11:07:30;101278.34;;;1.07;67.06
76609;BME280;65928;53.936;27.540;2023-02-07T11:10:17;101294.00;;;1.47;66.20
76609;BME280;65928;53.936;27.540;2023-02-07T11:12:45;100835.13;;;-1.01;65.56
76609;BME280;65928;53.936;27.540;2023-02-07T11:15:20;101270.38;;;1.38;66.54
76609;BME280;65928;53.936;27.540;2023-02-07T11:17:57;101248.81;;;1.45;66.51
76609;BME280;65928;53.936;27.540;2023-02-07T11:20:33;100762.13;;;-1.52;66.73
76609;BME280;65928;53.936;27.540;2023-02-07T11:23:04;101283.78;;;1.56;66.73
76609;BME280;65928;53.936;27.540;2023-02-07T11:25:35;101269.75;;;1.49;67.02
76609;BME280;65928;53.936;27.540;2023-02-07T11:28:03;100713.44;;;-1.28;66.40
76609;BME280;65928;53.936;27.540;2023-02-07T11:30:33;101071.94;;;1.12;65.00
76609;BME280;65928;53.936;27.540;2023-02-07T11:33:02;101265.56;;;1.57;66.04
76609;BME280;65928;53.936;27.540;2023-02-07T11:35:28;100740.53;;;-1.15;65.14
76609;BME280;65928;53.936;27.540;2023-02-07T11:38:13;100776.56;;;-1.27;64.79
76609;BME280;65928;53.936;27.540;2023-02-07T11:43:19;101270.38;;;2.24;63.29
76609;BME280;65928;53.936;27.540;2023-02-07T11:45:53;100738.22;;;-0.64;62.45
76609;BME280;65928;53.936;27.540;2023-02-07T11:48:32;101152.16;;;1.74;61.84
76609;BME280;65928;53.936;27.540;2023-02-07T11:51:01;101241.91;;;2.35;61.76
76609;BME280;65928;53.936;27.540;2023-02-07T11:54:04;101232.97;;;2.74;61.24
76609;BME280;65928;53.936;27.540;2023-02-07T11:57:01;101261.38;;;3.09;60.13
76609;BME280;65928;53.936;27.540;2023-02-07T11:59:28;100902.69;;;1.09;60.01
76609;BME280;65928;53.936;27.540;2023-02-07T12:01:56;100759.19;;;0.36;59.48
76609;BME280;65928;53.936;27.540;2023-02-07T12:04:40;101241.69;;;2.75;60.50
76609;BME280;65928;53.936;27.540;2023-02-07T12:09:45;101260.69;;;3.23;59.56
76609;BME280;65928;53.936;27.540;2023-02-07T12:12:22;101257.03;;;3.11;59.51
76609;BME280;65928;53.936;27.540;2023-02-07T12:20:25;101245.06;;;3.26;59.42
76609;BME280;65928;53.936;27.540;2023-02-07T12:23:02;101179.72;;;2.62;59.87
76609;BME280;65928;53.936;27.540;2023-02-07T12:25:38;101048.97;;;1.86;59.85
76609;BME280;65928;53.936;27.540;2023-02-07T12:28:33;100866.13;;;1.03;59.57
76609;BME280;65928;53.936;27.540;2023-02-07T12:31:00;100762.13;;;0.55;58.43
76609;BME280;65928;53.936;27.540;2023-02-07T12:33:30;101261.56;;;3.22;59.34
76609;BME280;65928;53.936;27.540;2023-02-07T12:36:04;101327.81;;;3.29;59.87
76609;BME280;65928;53.936;27.540;2023-02-07T12:38:47;101260.97;;;3.43;58.66
76609;BME280;65928;53.936;27.540;2023-02-07T12:41:24;101247.44;;;3.11;59.17
76609;BME280;65928;53.936;27.540;2023-02-07T12:44:06;101138.59;;;2.47;59.13
76609;BME280;65928;53.936;27.540;2023-02-07T12:53:14;101280.50;;;2.54;60.90
76609;BME280;65928;53.936;27.540;2023-02-07T12:57:48;101246.47;;;2.00;61.13
76609;BME280;65928;53.936;27.540;2023-02-07T13:00:34;101277.13;;;2.62;59.93
76609;BME280;65928;53.936;27.540;2023-02-07T13:06:00;101296.53;;;2.78;59.62
76609;BME280;65928;53.936;27.540;2023-02-07T13:24:59;101348.03;;;2.85;58.55
76609;BME280;65928;53.936;27.540;2023-02-07T13:27:26;101288.59;;;2.70;59.43
76609;BME280;65928;53.936;27.540;2023-02-07T13:29:53;101171.91;;;2.10;59.21
76609;BME280;65928;53.936;27.540;2023-02-07T13:32:24;101273.78;;;2.68;59.30
76609;BME280;65928;53.936;27.540;2023-02-07T13:35:20;101310.38;;;2.74;59.36
76609;BME280;65928;53.936;27.540;2023-02-07T13:37:52;100750.44;;;-0.59;59.50
76609;BME280;65928;53.936;27.540;2023-02-07T13:43:13;100815.50;;;-0.51;61.27
76609;BME280;65928;53.936;27.540;2023-02-07T13:49:06;101037.56;;;0.45;62.36
76609;BME280;65928;53.936;27.540;2023-02-07T13:51:57;101284.97;;;2.13;61.92
76609;BME280;65928;53.936;27.540;2023-02-07T13:56:59;101400.16;;;2.36;61.54
76609;BME280;65928;53.936;27.540;2023-02-07T14:00:03;100825.59;;;-0.63;61.81
76609;BME280;65928;53.936;27.540;2023-02-07T14:02:29;101330.88;;;2.05;62.94
76609;BME280;65928;53.936;27.540;2023-02-07T14:05:06;101277.47;;;1.87;62.48
76609;BME280;65928;53.936;27.540;2023-02-07T14:07:33;101330.78;;;2.47;62.10
76609;BME280;65928;53.936;27.540;2023-02-07T14:10:02;100820.44;;;-0.62;62.55
76609;BME280;65928;53.936;27.540;2023-02-07T14:12:48;101335.72;;;2.32;61.64
76609;BME280;65928;53.936;27.540;2023-02-07T14:18:04;101110.78;;;1.46;61.08
76609;BME280;65928;53.936;27.540;2023-02-07T14:30:29;100904.50;;;-0.20;62.60
76609;BME280;65928;53.936;27.540;2023-02-07T14:36:02;101375.06;;;1.99;63.19
76609;BME280;65928;53.936;27.540;2023-02-07T14:38:31;101441.28;;;1.68;63.93
76609;BME280;65928;53.936;27.540;2023-02-07T14:41:02;100818.69;;;-1.68;64.44